sensor_id;sensor_type;location;lat;lon;timestamp;pressure;altitude;pressure_sealevel;temperature;humidity
79221;BME280;72175;52.118;5.406;2023-11-19T00:00:08;100831.41;;;13.85;62.87
79221;BME280;72175;52.118;5.406;2023-11-19T00:02:52;100826.91;;;13.85;62.73
79221;BME280;72175;52.118;5.406;2023-11-19T00:05:19;100818.09;;;13.85;62.68
79221;BME280;72175;52.118;5.406;2023-11-19T00:07:45;100828.75;;;13.85;62.59
79221;BME280;72175;52.118;5.406;2023-11-19T00:10:14;100812.78;;;13.85;62.48
79221;BME280;72175;52.118;5.406;2023-11-19T00:12:46;100800.31;;;13.85;62.38
79221;BME280;72175;52.118;5.406;2023-11-19T00:15:13;100804.81;;;13.85;62.64
79221;BME280;72175;52.118;5.406;2023-11-19T00:17:41;100810.97;;;13.85;62.71
79221;BME280;72175;52.118;5.406;2023-11-19T00:20:15;100810.13;;;13.85;62.55
79221;BME280;72175;52.118;5.406;2023-11-19T00:22:42;100811.78;;;13.86;62.65
79221;BME280;72175;52.118;5.406;2023-11-19T00:25:11;100818.94;;;13.85;62.57
79221;BME280;72175;52.118;5.406;2023-11-19T00:27:38;100802.97;;;13.85;62.76
79221;BME280;72175;52.118;5.406;2023-11-19T00:30:05;100793.31;;;13.84;62.98
79221;BME280;72175;52.118;5.406;2023-11-19T00:32:33;100799.47;;;13.85;62.76
79221;BME280;72175;52.118;5.406;2023-11-19T00:34:59;100795.00;;;13.85;62.76
79221;BME280;72175;52.118;5.406;2023-11-19T00:37:26;100790.66;;;13.84;62.79
79221;BME280;72175;52.118;5.406;2023-11-19T00:39:52;100790.66;;;13.84;62.58
79221;BME280;72175;52.118;5.406;2023-11-19T00:42:19;100786.19;;;13.85;62.64
79221;BME280;72175;52.118;5.406;2023-11-19T00:44:47;100788.84;;;13.85;62.57
79221;BME280;72175;52.118;5.406;2023-11-19T00:47:17;100795.84;;;13.86;62.48
79221;BME280;72175;52.118;5.406;2023-11-19T00:49:51;100785.19;;;13.86;62.71
79221;BME280;72175;52.118;5.406;2023-11-19T00:52:17;100780.72;;;13.86;62.96
79221;BME280;72175;52.118;5.406;2023-11-19T00:54:45;100777.22;;;13.86;62.95
79221;BME280;72175;52.118;5.406;2023-11-19T00:57:11;100769.22;;;13.86;62.73
79221;BME280;72175;52.118;5.406;2023-11-19T00:59:41;100763.91;;;13.86;62.51
79221;BME280;72175;52.118;5.406;2023-11-19T01:02:08;100780.72;;;13.86;62.93
79221;BME280;72175;52.118;5.406;2023-11-19T01:04:35;100775.53;;;13.85;62.98
79221;BME280;72175;52.118;5.406;2023-11-19T01:07:05;100779.88;;;13.86;63.00
79221;BME280;72175;52.118;5.406;2023-11-19T01:09:32;100768.41;;;13.85;62.75
79221;BME280;72175;52.118;5.406;2023-11-19T01:12:02;100782.53;;;13.86;62.82
79221;BME280;72175;52.118;5.406;2023-11-19T01:14:29;100785.19;;;13.86;62.83
79221;BME280;72175;52.118;5.406;2023-11-19T01:16:56;100795.00;;;13.85;63.05
79221;BME280;72175;52.118;5.406;2023-11-19T01:19:24;100785.19;;;13.86;62.87
79221;BME280;72175;52.118;5.406;2023-11-19T01:21:51;100776.38;;;13.85;63.05
79221;BME280;72175;52.118;5.406;2023-11-19T01:24:18;100765.75;;;13.85;63.06
79221;BME280;72175;52.118;5.406;2023-11-19T01:26:44;100757.75;;;13.85;62.74
79221;BME280;72175;52.118;5.406;2023-11-19T01:29:14;100764.75;;;13.86;62.94
79221;BME280;72175;52.118;5.406;2023-11-19T01:31:45;100751.59;;;13.85;62.73
79221;BME280;72175;52.118;5.406;2023-11-19T01:34:17;100748.78;;;13.86;63.05
79221;BME280;72175;52.118;5.406;2023-11-19T01:36:48;100754.09;;;13.86;62.79
79221;BME280;72175;52.118;5.406;2023-11-19T01:39:15;100755.09;;;13.85;62.76
79221;BME280;72175;52.118;5.406;2023-11-19T01:41:46;100756.78;;;13.86;63.23
79221;BME280;72175;52.118;5.406;2023-11-19T01:44:13;100755.09;;;13.85;62.98
79221;BME280;72175;52.118;5.406;2023-11-19T01:46:44;100760.41;;;13.85;63.00
79221;BME280;72175;52.118;5.406;2023-11-19T01:49:23;100762.09;;;13.86;62.71
79221;BME280;72175;52.118;5.406;2023-11-19T01:51:50;100755.94;;;13.86;62.71
79221;BME280;72175;52.118;5.406;2023-11-19T01:54:16;100762.94;;;13.87;63.01
79221;BME280;72175;52.118;5.406;2023-11-19T01:56:46;100766.56;;;13.86;62.80
79221;BME280;72175;52.118;5.406;2023-11-19T01:59:13;100756.78;;;13.86;62.83
79221;BME280;72175;52.118;5.406;2023-11-19T02:01:41;100756.78;;;13.86;62.82
79221;BME280;72175;52.118;5.406;2023-11-19T02:04:09;100760.25;;;13.87;62.99
79221;BME280;72175;52.118;5.406;2023-11-19T02:06:40;100765.75;;;13.85;62.94
79221;BME280;72175;52.118;5.406;2023-11-19T02:09:07;100757.75;;;13.85;63.13
79221;BME280;72175;52.118;5.406;2023-11-19T02:11:34;100753.28;;;13.86;62.87
79221;BME280;72175;52.118;5.406;2023-11-19T02:14:01;100742.63;;;13.86;62.84
79221;BME280;72175;52.118;5.406;2023-11-19T02:16:30;100748.78;;;13.86;63.19
79221;BME280;72175;52.118;5.406;2023-11-19T02:18:56;100746.13;;;13.86;63.33
79221;BME280;72175;52.118;5.406;2023-11-19T02:21:23;100756.78;;;13.86;63.14
79221;BME280;72175;52.118;5.406;2023-11-19T02:23:49;100761.09;;;13.87;63.13
79221;BME280;72175;52.118;5.406;2023-11-19T02:28:44;100770.06;;;13.86;63.31
79221;BME280;72175;52.118;5.406;2023-11-19T02:31:10;100766.56;;;13.86;63.27
79221;BME280;72175;52.118;5.406;2023-11-19T02:33:38;100778.88;;;13.87;63.12
79221;BME280;72175;52.118;5.406;2023-11-19T02:36:06;100772.72;;;13.86;63.22
79221;BME280;72175;52.118;5.406;2023-11-19T02:38:34;100780.72;;;13.86;63.04
79221;BME280;72175;52.118;5.406;2023-11-19T02:41:03;100770.06;;;13.86;63.29
79221;BME280;72175;52.118;5.406;2023-11-19T02:43:35;100766.56;;;13.86;62.75
79221;BME280;72175;52.118;5.406;2023-11-19T02:46:10;100767.41;;;13.86;63.03
79221;BME280;72175;52.118;5.406;2023-11-19T02:48:40;100766.56;;;13.86;63.13
79221;BME280;72175;52.118;5.406;2023-11-19T02:51:07;100753.28;;;13.86;62.99
79221;BME280;72175;52.118;5.406;2023-11-19T02:53:36;100751.44;;;13.86;63.13
79221;BME280;72175;52.118;5.406;2023-11-19T02:56:07;100746.13;;;13.86;63.19
79221;BME280;72175;52.118;5.406;2023-11-19T02:58:52;100760.41;;;13.85;63.23
79221;BME280;72175;52.118;5.406;2023-11-19T03:01:22;100763.91;;;13.86;63.02
79221;BME280;72175;52.118;5.406;2023-11-19T03:04:00;100760.41;;;13.85;63.39
79221;BME280;72175;52.118;5.406;2023-11-19T03:06:29;100746.28;;;13.85;63.61
79221;BME280;72175;52.118;5.406;2023-11-19T03:08:56;100751.44;;;13.86;63.35
79221;BME280;72175;52.118;5.406;2023-11-19T03:11:22;100754.94;;;13.87;63.16
79221;BME280;72175;52.118;5.406;2023-11-19T03:13:49;100754.09;;;13.86;63.11
79221;BME280;72175;52.118;5.406;2023-11-19T03:16:15;100759.44;;;13.86;63.45
79221;BME280;72175;52.118;5.406;2023-11-19T03:18:43;100755.94;;;13.86;63.13
79221;BME280;72175;52.118;5.406;2023-11-19T03:21:10;100761.25;;;13.86;63.22
79221;BME280;72175;52.118;5.406;2023-11-19T03:23:37;100763.91;;;13.86;63.68
79221;BME280;72175;52.118;5.406;2023-11-19T03:26:06;100768.41;;;13.85;63.37
79221;BME280;72175;52.118;5.406;2023-11-19T03:28:32;100763.91;;;13.86;63.21
79221;BME280;72175;52.118;5.406;2023-11-19T03:30:59;100756.78;;;13.86;63.38
79221;BME280;72175;52.118;5.406;2023-11-19T03:33:26;100759.44;;;13.86;63.24
79221;BME280;72175;52.118;5.406;2023-11-19T03:35:56;100755.09;;;13.85;63.36
79221;BME280;72175;52.118;5.406;2023-11-19T03:38:23;100748.94;;;13.85;63.36
79221;BME280;72175;52.118;5.406;2023-11-19T03:40:51;100740.97;;;13.85;63.38
79221;BME280;72175;52.118;5.406;2023-11-19T03:43:17;100736.66;;;13.84;63.33
79221;BME280;72175;52.118;5.406;2023-11-19T03:45:45;100732.00;;;13.86;63.56
79221;BME280;72175;52.118;5.406;2023-11-19T03:48:13;100731.31;;;13.84;63.28
79221;BME280;72175;52.118;5.406;2023-11-19T03:50:43;100739.31;;;13.84;63.67
79221;BME280;72175;52.118;5.406;2023-11-19T03:53:09;100742.94;;;13.83;63.36
79221;BME280;72175;52.118;5.406;2023-11-19T03:55:36;100739.31;;;13.84;63.38
79221;BME280;72175;52.118;5.406;2023-11-19T03:58:02;100758.75;;;13.84;63.71
79221;BME280;72175;52.118;5.406;2023-11-19T04:00:29;100761.41;;;13.84;63.53
79221;BME280;72175;52.118;5.406;2023-11-19T04:02:55;100758.75;;;13.84;63.63
79221;BME280;72175;52.118;5.406;2023-11-19T04:05:22;100761.41;;;13.84;63.70
79221;BME280;72175;52.118;5.406;2023-11-19T04:07:48;100762.25;;;13.85;63.36
79221;BME280;72175;52.118;5.406;2023-11-19T04:10:17;100772.88;;;13.85;63.63
79221;BME280;72175;52.118;5.406;2023-11-19T04:12:44;100771.06;;;13.85;63.64
79221;BME280;72175;52.118;5.406;2023-11-19T04:15:11;100779.03;;;13.85;63.40
79221;BME280;72175;52.118;5.406;2023-11-19T04:17:41;100772.88;;;13.85;63.69
79221;BME280;72175;52.118;5.406;2023-11-19T04:20:07;100782.69;;;13.84;63.91
79221;BME280;72175;52.118;5.406;2023-11-19T04:22:41;100777.38;;;13.84;63.69
79221;BME280;72175;52.118;5.406;2023-11-19T04:25:08;100782.69;;;13.84;63.29
79221;BME280;72175;52.118;5.406;2023-11-19T04:27:35;100791.50;;;13.85;63.46
79221;BME280;72175;52.118;5.406;2023-11-19T04:30:02;100785.34;;;13.84;63.66
79221;BME280;72175;52.118;5.406;2023-11-19T04:32:29;100777.38;;;13.84;63.42
79221;BME280;72175;52.118;5.406;2023-11-19T04:34:56;100774.56;;;13.86;63.47
79221;BME280;72175;52.118;5.406;2023-11-19T04:37:22;100771.22;;;13.84;63.52
79221;BME280;72175;52.118;5.406;2023-11-19T04:39:49;100769.38;;;13.84;63.73
79221;BME280;72175;52.118;5.406;2023-11-19T04:42:16;100771.22;;;13.84;63.71
79221;BME280;72175;52.118;5.406;2023-11-19T04:44:43;100772.06;;;13.84;63.74
79221;BME280;72175;52.118;5.406;2023-11-19T04:47:10;100772.22;;;13.83;63.45
79221;BME280;72175;52.118;5.406;2023-11-19T04:49:40;100777.38;;;13.84;63.72
79221;BME280;72175;52.118;5.406;2023-11-19T04:52:09;100781.03;;;13.83;63.72
79221;BME280;72175;52.118;5.406;2023-11-19T04:54:40;100774.03;;;13.82;63.98
79221;BME280;72175;52.118;5.406;2023-11-19T04:57:07;100764.22;;;13.83;63.59
79221;BME280;72175;52.118;5.406;2023-11-19T04:59:36;100764.22;;;13.83;63.59
79221;BME280;72175;52.118;5.406;2023-11-19T05:02:02;100756.25;;;13.83;63.63
79221;BME280;72175;52.118;5.406;2023-11-19T05:04:31;100763.41;;;13.82;63.56
79221;BME280;72175;52.118;5.406;2023-11-19T05:06:57;100768.72;;;13.82;63.69
79221;BME280;72175;52.118;5.406;2023-11-19T05:09:24;100774.88;;;13.83;64.03
79221;BME280;72175;52.118;5.406;2023-11-19T05:11:50;100778.53;;;13.82;63.46
79221;BME280;72175;52.118;5.406;2023-11-19T05:14:17;100790.81;;;13.83;63.53
79221;BME280;72175;52.118;5.406;2023-11-19T05:16:47;100796.16;;;13.83;63.66
79221;BME280;72175;52.118;5.406;2023-11-19T05:19:13;100784.69;;;13.82;63.92
79221;BME280;72175;52.118;5.406;2023-11-19T05:21:43;100785.50;;;13.83;63.57
79221;BME280;72175;52.118;5.406;2023-11-19T05:24:10;100779.34;;;13.82;63.73
79221;BME280;72175;52.118;5.406;2023-11-19T05:26:40;100779.34;;;13.82;63.58
79221;BME280;72175;52.118;5.406;2023-11-19T05:29:07;100782.00;;;13.82;63.90
79221;BME280;72175;52.118;5.406;2023-11-19T05:31:33;100770.53;;;13.82;63.89
79221;BME280;72175;52.118;5.406;2023-11-19T05:34:03;100775.88;;;13.82;63.61
79221;BME280;72175;52.118;5.406;2023-11-19T05:36:30;100777.53;;;13.83;63.81
79221;BME280;72175;52.118;5.406;2023-11-19T05:38:57;100782.84;;;13.83;63.79
79221;BME280;72175;52.118;5.406;2023-11-19T05:41:23;100770.53;;;13.82;63.89
79221;BME280;72175;52.118;5.406;2023-11-19T05:43:50;100778.53;;;13.82;63.59
79221;BME280;72175;52.118;5.406;2023-11-19T05:46:17;100782.00;;;13.82;63.53
79221;BME280;72175;52.118;5.406;2023-11-19T05:48:46;100781.19;;;13.82;63.87
79221;BME280;72175;52.118;5.406;2023-11-19T05:51:13;100781.19;;;13.82;63.75
79221;BME280;72175;52.118;5.406;2023-11-19T05:53:41;100788.31;;;13.81;63.66
79221;BME280;72175;52.118;5.406;2023-11-19T05:56:09;100781.19;;;13.82;63.71
79221;BME280;72175;52.118;5.406;2023-11-19T05:58:36;100782.16;;;13.81;64.06
79221;BME280;72175;52.118;5.406;2023-11-19T06:01:04;100785.66;;;13.81;63.94
79221;BME280;72175;52.118;5.406;2023-11-19T06:03:33;100782.84;;;13.83;63.97
79221;BME280;72175;52.118;5.406;2023-11-19T06:06:00;100789.16;;;13.82;63.54
79221;BME280;72175;52.118;5.406;2023-11-19T06:08:27;100783.84;;;13.82;63.79
79221;BME280;72175;52.118;5.406;2023-11-19T06:10:53;100785.66;;;13.81;63.66
79221;BME280;72175;52.118;5.406;2023-11-19T06:13:20;100783.84;;;13.82;63.91
79221;BME280;72175;52.118;5.406;2023-11-19T06:15:50;100771.53;;;13.81;63.77
79221;BME280;72175;52.118;5.406;2023-11-19T06:18:17;100776.84;;;13.81;63.75
79221;BME280;72175;52.118;5.406;2023-11-19T06:20:47;100773.34;;;13.80;64.01
79221;BME280;72175;52.118;5.406;2023-11-19T06:23:13;100779.50;;;13.81;63.95
79221;BME280;72175;52.118;5.406;2023-11-19T06:25:45;100783.00;;;13.81;64.13
79221;BME280;72175;52.118;5.406;2023-11-19T06:28:11;100786.50;;;13.82;63.86
79221;BME280;72175;52.118;5.406;2023-11-19T06:30:38;100789.16;;;13.82;64.13
79221;BME280;72175;52.118;5.406;2023-11-19T06:33:05;100789.31;;;13.80;64.13
79221;BME280;72175;52.118;5.406;2023-11-19T06:35:32;100790.16;;;13.81;63.81
79221;BME280;72175;52.118;5.406;2023-11-19T06:38:03;100796.31;;;13.81;64.07
79221;BME280;72175;52.118;5.406;2023-11-19T06:40:32;100805.13;;;13.82;64.00
79221;BME280;72175;52.118;5.406;2023-11-19T06:42:59;100797.13;;;13.82;63.70
79221;BME280;72175;52.118;5.406;2023-11-19T06:45:26;100807.78;;;13.82;63.94
79221;BME280;72175;52.118;5.406;2023-11-19T06:47:52;100805.13;;;13.82;64.15
79221;BME280;72175;52.118;5.406;2023-11-19T06:50:19;100806.09;;;13.81;63.94
79221;BME280;72175;52.118;5.406;2023-11-19T06:52:46;100809.59;;;13.81;63.76
79221;BME280;72175;52.118;5.406;2023-11-19T06:55:12;100809.59;;;13.81;63.94
79221;BME280;72175;52.118;5.406;2023-11-19T06:57:39;100814.09;;;13.81;63.92
79221;BME280;72175;52.118;5.406;2023-11-19T07:00:06;100821.06;;;13.82;63.88
79221;BME280;72175;52.118;5.406;2023-11-19T07:02:32;100815.91;;;13.80;63.79
79221;BME280;72175;52.118;5.406;2023-11-19T07:04:59;100828.22;;;13.81;63.88
79221;BME280;72175;52.118;5.406;2023-11-19T07:07:26;100824.72;;;13.81;63.97
79221;BME280;72175;52.118;5.406;2023-11-19T07:09:53;100824.72;;;13.81;63.83
79221;BME280;72175;52.118;5.406;2023-11-19T07:12:19;100830.03;;;13.81;64.16
79221;BME280;72175;52.118;5.406;2023-11-19T07:14:46;100837.19;;;13.80;64.01
79221;BME280;72175;52.118;5.406;2023-11-19T07:17:12;100826.56;;;13.80;63.79
79221;BME280;72175;52.118;5.406;2023-11-19T07:19:39;100846.00;;;13.81;64.11
79221;BME280;72175;52.118;5.406;2023-11-19T07:22:06;100837.19;;;13.80;64.09
79221;BME280;72175;52.118;5.406;2023-11-19T07:24:33;100847.81;;;13.80;64.23
79221;BME280;72175;52.118;5.406;2023-11-19T07:27:00;100853.81;;;13.82;64.02
79221;BME280;72175;52.118;5.406;2023-11-19T07:29:27;100851.31;;;13.81;64.17
79221;BME280;72175;52.118;5.406;2023-11-19T07:31:55;100851.31;;;13.81;64.02
79221;BME280;72175;52.118;5.406;2023-11-19T07:34:23;100845.16;;;13.80;64.08
79221;BME280;72175;52.118;5.406;2023-11-19T07:36:50;100847.81;;;13.80;63.81
79221;BME280;72175;52.118;5.406;2023-11-19T07:39:16;100855.00;;;13.80;64.05
79221;BME280;72175;52.118;5.406;2023-11-19T07:41:43;100850.47;;;13.80;63.91
79221;BME280;72175;52.118;5.406;2023-11-19T07:44:11;100858.47;;;13.80;64.16
79221;BME280;72175;52.118;5.406;2023-11-19T07:46:38;100852.34;;;13.80;64.14
79221;BME280;72175;52.118;5.406;2023-11-19T07:49:05;100861.97;;;13.81;63.94
79221;BME280;72175;52.118;5.406;2023-11-19T07:51:31;100855.00;;;13.80;63.79
79221;BME280;72175;52.118;5.406;2023-11-19T07:53:58;100861.13;;;13.80;63.97
79221;BME280;72175;52.118;5.406;2023-11-19T07:56:24;100858.47;;;13.80;64.04
79221;BME280;72175;52.118;5.406;2023-11-19T07:58:51;100852.34;;;13.80;63.80
79221;BME280;72175;52.118;5.406;2023-11-19T08:01:18;100845.16;;;13.80;64.09
79221;BME280;72175;52.118;5.406;2023-11-19T08:03:45;100847.03;;;13.80;64.14
79221;BME280;72175;52.118;5.406;2023-11-19T08:06:14;100848.66;;;13.81;64.00
79221;BME280;72175;52.118;5.406;2023-11-19T08:08:42;100844.38;;;13.80;63.92
79221;BME280;72175;52.118;5.406;2023-11-19T08:11:09;100853.16;;;13.80;64.13
79221;BME280;72175;52.118;5.406;2023-11-19T08:13:35;100865.63;;;13.80;64.11
79221;BME280;72175;52.118;5.406;2023-11-19T08:16:02;100850.47;;;13.80;63.78
79221;BME280;72175;52.118;5.406;2023-11-19T08:18:28;100846.84;;;13.81;64.17
79221;BME280;72175;52.118;5.406;2023-11-19T08:20:55;100853.16;;;13.80;63.82
79221;BME280;72175;52.118;5.406;2023-11-19T08:23:22;100857.66;;;13.80;64.03
79221;BME280;72175;52.118;5.406;2023-11-19T08:25:51;100853.16;;;13.80;63.89
79221;BME280;72175;52.118;5.406;2023-11-19T08:28:19;100839.84;;;13.80;64.23
79221;BME280;72175;52.118;5.406;2023-11-19T08:30:45;100847.03;;;13.80;63.79
79221;BME280;72175;52.118;5.406;2023-11-19T08:33:12;100861.97;;;13.81;64.17
79221;BME280;72175;52.118;5.406;2023-11-19T08:35:38;100857.66;;;13.80;63.90
79221;BME280;72175;52.118;5.406;2023-11-19T08:38:05;100860.31;;;13.80;64.13
79221;BME280;72175;52.118;5.406;2023-11-19T08:40:31;100855.81;;;13.80;nan
79221;BME280;72175;52.118;5.406;2023-11-19T08:42:58;100863.78;;;13.80;64.15
79221;BME280;72175;52.118;5.406;2023-11-19T08:45:25;100861.13;;;13.80;64.03
79221;BME280;72175;52.118;5.406;2023-11-19T08:47:51;100865.63;;;13.80;64.04
79221;BME280;72175;52.118;5.406;2023-11-19T08:50:18;100867.28;;;13.81;64.31
79221;BME280;72175;52.118;5.406;2023-11-19T08:52:44;100870.97;;;13.80;64.22
79221;BME280;72175;52.118;5.406;2023-11-19T08:55:11;100864.63;;;13.81;64.19
79221;BME280;72175;52.118;5.406;2023-11-19T08:57:39;100868.13;;;13.81;64.30
79221;BME280;72175;52.118;5.406;2023-11-19T09:00:06;100869.94;;;13.81;63.79
79221;BME280;72175;52.118;5.406;2023-11-19T09:02:37;100864.63;;;13.81;64.02
79221;BME280;72175;52.118;5.406;2023-11-19T09:05:05;100867.28;;;13.81;64.22
79221;BME280;72175;52.118;5.406;2023-11-19T09:07:31;100861.97;;;13.81;64.37
79221;BME280;72175;52.118;5.406;2023-11-19T09:09:58;100869.09;;;13.80;64.15
79221;BME280;72175;52.118;5.406;2023-11-19T09:12:25;100868.94;;;13.82;63.74
79221;BME280;72175;52.118;5.406;2023-11-19T09:14:51;100867.28;;;13.81;64.40
79221;BME280;72175;52.118;5.406;2023-11-19T09:17:18;100862.97;;;13.80;64.02
79221;BME280;72175;52.118;5.406;2023-11-19T09:19:44;100865.44;;;13.81;64.00
79221;BME280;72175;52.118;5.406;2023-11-19T09:22:12;100867.28;;;13.81;64.03
79221;BME280;72175;52.118;5.406;2023-11-19T09:24:38;100867.28;;;13.81;63.93
79221;BME280;72175;52.118;5.406;2023-11-19T09:27:05;100866.28;;;13.82;64.29
79221;BME280;72175;52.118;5.406;2023-11-19T09:29:32;100862.78;;;13.81;64.07
79221;BME280;72175;52.118;5.406;2023-11-19T09:31:59;100868.13;;;13.81;64.05
79221;BME280;72175;52.118;5.406;2023-11-19T09:34:25;100870.78;;;13.81;nan
79221;BME280;72175;52.118;5.406;2023-11-19T09:36:52;100863.63;;;13.82;64.27
79221;BME280;72175;52.118;5.406;2023-11-19T09:39:18;100872.44;;;13.82;64.11
79221;BME280;72175;52.118;5.406;2023-11-19T09:41:46;100863.63;;;13.82;64.29
79221;BME280;72175;52.118;5.406;2023-11-19T09:44:13;100860.97;;;13.82;63.75
79221;BME280;72175;52.118;5.406;2023-11-19T09:46:41;100868.94;;;13.82;64.21
79221;BME280;72175;52.118;5.406;2023-11-19T09:49:09;100866.28;;;13.82;64.27
79221;BME280;72175;52.118;5.406;2023-11-19T09:51:36;100861.81;;;13.82;nan
79221;BME280;72175;52.118;5.406;2023-11-19T09:54:03;100859.97;;;13.83;64.11
79221;BME280;72175;52.118;5.406;2023-11-19T09:56:30;100852.00;;;13.83;64.06
79221;BME280;72175;52.118;5.406;2023-11-19T09:59:00;100855.66;;;13.82;63.88
79221;BME280;72175;52.118;5.406;2023-11-19T10:01:27;100848.50;;;13.82;64.10
79221;BME280;72175;52.118;5.406;2023-11-19T10:03:55;100845.84;;;13.82;64.32
79221;BME280;72175;52.118;5.406;2023-11-19T10:06:22;100849.34;;;13.83;64.13
79221;BME280;72175;52.118;5.406;2023-11-19T10:08:51;100842.19;;;13.83;64.06
79221;BME280;72175;52.118;5.406;2023-11-19T10:11:17;100850.19;;;13.83;64.08
79221;BME280;72175;52.118;5.406;2023-11-19T10:13:44;100849.34;;;13.83;63.86
79221;BME280;72175;52.118;5.406;2023-11-19T10:16:14;100846.53;;;13.84;63.89
79221;BME280;72175;52.118;5.406;2023-11-19T10:18:48;100835.88;;;13.84;63.83
79221;BME280;72175;52.118;5.406;2023-11-19T10:21:19;100835.06;;;13.84;64.21
79221;BME280;72175;52.118;5.406;2023-11-19T10:23:51;100819.94;;;13.84;63.81
79221;BME280;72175;52.118;5.406;2023-11-19T10:26:19;100819.09;;;13.84;64.00
79221;BME280;72175;52.118;5.406;2023-11-19T10:28:46;100818.09;;;13.85;64.26
79221;BME280;72175;52.118;5.406;2023-11-19T10:31:14;100812.78;;;13.85;63.91
79221;BME280;72175;52.118;5.406;2023-11-19T10:33:41;100829.56;;;13.85;64.06
79221;BME280;72175;52.118;5.406;2023-11-19T10:36:13;100825.09;;;13.86;64.01
79221;BME280;72175;52.118;5.406;2023-11-19T10:38:58;100833.06;;;13.86;64.10
79221;BME280;72175;52.118;5.406;2023-11-19T10:41:29;100817.09;;;13.86;63.85
79221;BME280;72175;52.118;5.406;2023-11-19T10:44:00;100806.31;;;13.87;64.09
79221;BME280;72175;52.118;5.406;2023-11-19T10:46:39;100810.78;;;13.87;63.66
79221;BME280;72175;52.118;5.406;2023-11-19T10:49:07;100812.47;;;13.88;64.01
79221;BME280;72175;52.118;5.406;2023-11-19T10:51:34;100815.28;;;13.86;63.75
79221;BME280;72175;52.118;5.406;2023-11-19T10:54:05;100820.59;;;13.86;64.08
79221;BME280;72175;52.118;5.406;2023-11-19T10:56:33;100813.47;;;13.87;63.89
79221;BME280;72175;52.118;5.406;2023-11-19T10:59:00;100823.09;;;13.88;63.79
79221;BME280;72175;52.118;5.406;2023-11-19T11:01:32;100815.97;;;13.88;63.96
79221;BME280;72175;52.118;5.406;2023-11-19T11:04:02;100807.97;;;13.88;64.00
79221;BME280;72175;52.118;5.406;2023-11-19T11:06:29;100815.81;;;13.90;63.98
79221;BME280;72175;52.118;5.406;2023-11-19T11:08:56;100813.97;;;13.90;64.15
79221;BME280;72175;52.118;5.406;2023-11-19T11:11:24;100821.13;;;13.90;64.00
79221;BME280;72175;52.118;5.406;2023-11-19T11:13:53;100826.44;;;13.90;63.78
79221;BME280;72175;52.118;5.406;2023-11-19T11:16:22;100820.13;;;13.91;63.96
79221;BME280;72175;52.118;5.406;2023-11-19T11:18:51;100822.78;;;13.91;64.01
79221;BME280;72175;52.118;5.406;2023-11-19T11:21:21;100817.47;;;13.91;63.91
79221;BME280;72175;52.118;5.406;2023-11-19T11:37:26;100813.97;;;13.90;63.96
79221;BME280;72175;52.118;5.406;2023-11-19T11:39:57;100814.81;;;13.91;63.86
79221;BME280;72175;52.118;5.406;2023-11-19T11:45:14;100811.16;;;13.92;63.74
79221;BME280;72175;52.118;5.406;2023-11-19T11:50:21;100808.50;;;13.92;63.96
79221;BME280;72175;52.118;5.406;2023-11-19T11:55:28;100806.84;;;13.91;63.87
79221;BME280;72175;52.118;5.406;2023-11-19T11:58:00;100802.34;;;13.91;64.16
79221;BME280;72175;52.118;5.406;2023-11-19T12:00:29;100802.50;;;13.90;63.82
79221;BME280;72175;52.118;5.406;2023-11-19T12:02:59;100806.84;;;13.91;63.96
79221;BME280;72175;52.118;5.406;2023-11-19T12:05:26;100798.84;;;13.91;64.02
79221;BME280;72175;52.118;5.406;2023-11-19T12:10:24;100791.72;;;13.91;63.75
79221;BME280;72175;52.118;5.406;2023-11-19T12:12:58;100793.53;;;13.91;64.17
79221;BME280;72175;52.118;5.406;2023-11-19T12:15:24;100786.38;;;13.91;64.03
79221;BME280;72175;52.118;5.406;2023-11-19T12:17:54;100788.22;;;13.91;64.25
79221;BME280;72175;52.118;5.406;2023-11-19T12:20:24;100784.72;;;13.90;63.74
79221;BME280;72175;52.118;5.406;2023-11-19T12:22:53;100782.88;;;13.91;63.87
79221;BME280;72175;52.118;5.406;2023-11-19T12:25:20;100770.59;;;13.90;63.79
79221;BME280;72175;52.118;5.406;2023-11-19T12:27:50;100782.06;;;13.90;64.11
79221;BME280;72175;52.118;5.406;2023-11-19T12:30:24;100788.22;;;13.91;63.82
79221;BME280;72175;52.118;5.406;2023-11-19T12:32:53;100786.53;;;13.90;64.21
79221;BME280;72175;52.118;5.406;2023-11-19T12:35:20;100796.19;;;13.91;64.40
79221;BME280;72175;52.118;5.406;2023-11-19T12:37:50;100785.56;;;13.91;63.75
79221;BME280;72175;52.118;5.406;2023-11-19T12:40:22;100793.53;;;13.91;63.95
79221;BME280;72175;52.118;5.406;2023-11-19T12:42:49;100786.53;;;13.90;64.24
79221;BME280;72175;52.118;5.406;2023-11-19T12:45:17;100806.84;;;13.91;63.93
79221;BME280;72175;52.118;5.406;2023-11-19T12:47:46;100790.03;;;13.90;63.84
79221;BME280;72175;52.118;5.406;2023-11-19T12:50:16;100790.03;;;13.90;64.12
79221;BME280;72175;52.118;5.406;2023-11-19T12:52:58;100791.03;;;13.89;63.97
79221;BME280;72175;52.118;5.406;2023-11-19T12:55:29;100795.50;;;13.89;64.17
79221;BME280;72175;52.118;5.406;2023-11-19T12:57:56;100799.00;;;13.89;64.14
79221;BME280;72175;52.118;5.406;2023-11-19T13:00:26;100791.88;;;13.90;63.89
79221;BME280;72175;52.118;5.406;2023-11-19T13:02:54;100796.19;;;13.91;64.39
79221;BME280;72175;52.118;5.406;2023-11-19T13:05:29;100785.56;;;13.91;63.94
79221;BME280;72175;52.118;5.406;2023-11-19T13:08:07;100802.34;;;13.91;63.83
79221;BME280;72175;52.118;5.406;2023-11-19T13:10:51;100785.56;;;13.91;64.46
79221;BME280;72175;52.118;5.406;2023-11-19T13:13:18;100784.72;;;13.90;64.05
79221;BME280;72175;52.118;5.406;2023-11-19T13:15:45;100777.56;;;13.91;63.97
79221;BME280;72175;52.118;5.406;2023-11-19T13:18:12;100777.56;;;13.91;64.17
79221;BME280;72175;52.118;5.406;2023-11-19T13:20:40;100782.88;;;13.91;64.29